Hovedside
METAR-TAF:

METAR-TAF

Lufthavner :

Flystasjon

Linköping, Sverige

breddegrad: 58-24N, lengdegrad: 015-31E, høyde over havet: 93 m

Gjeldene værobservasjon

Denne rapporten ble laget for 22 minutter siden, klokken 18:20 UTC
Vind 13 kt fra Sør-sørvest
Temperatur 12°C
Luftfuktighet 82%
Trykk 993 hPa
Sikt 10 km eller mer

METAR: ESCF 211820Z AUTO 20013KT 9999 BKN100/// 12/09 Q0993

Tid: 20:42 (18:42 UTC)

Varsel

Denne rapporten ble laget for 10 timer og 12 minutter siden, klokken 08:30 UTC
Varsel gyldig fra 21. klokken 09 UTC til 21. klokken 13 UTC
Vind 15 kt fra Sør med vindkast opp mot 25 kt
Sikt 10 km eller mer
ingen skyer under 1500 m og ingen bygeskyer
Blir
fra 21. klokken 09 UTC til 21. klokken 11 UTC
Vind 19 kt fra Sør med vindkast opp mot 30 kt
Sannsynlighet 40%
fra 21. klokken 12 UTC til 21. klokken 13 UTC
Vind 19 kt fra Sør med vindkast opp mot 34 kt

TAF: ESCF 210830Z 2109/2113 17015G25KT CAVOK BECMG 2109/2111 18019G30KT PROB40 2112/2113 19019G34KT RMK MIL

Værobservasjoner og værvarsel for over 4000 flyplasser (METAR- og TAF-rapporter).

Tilgjengelige stasjoner er representert av de røde og gule prikkene på kartet.

Hold musepekeren over prikken for å se navnet på stasjonen.

Klikk så for å se værobservasjoner og -varsler.

For å forandre kartet kan du klikke på den grønne knappen med svart kryss for å zoome inn, på den grønne knappen med strek for å zoome ut, eller på de grønne pilene for å se tilstøtende kart.


METAR-TAF: